Time;durP1;ratioP1;P1;durP2;ratioP2;P2;SDS_P1;SDS_P2;PMS_P1;PMS_P2;Temp;Humidity;BMP_temperature;BMP_pressure;BME280_temperature;BME280_humidity;BME280_pressure;Samples;Min_cycle;Max_cycle;Signal;HPM_P1;HPM_P2
2023/01/25 00:00:20;;;;;;;3.25;1.60;;;4.00;99.90;;;;;;5022888;28;20299;-62
2023/01/25 00:02:48;;;;;;;2.78;2.22;;;3.70;99.90;;;;;;5023724;28;20668;-61
2023/01/25 00:05:16;;;;;;;5.13;3.25;;;3.60;99.90;;;;;;5023812;28;20208;-62
2023/01/25 00:07:44;;;;;;;4.75;3.47;;;3.50;99.90;;;;;;5024700;28;20205;-62
2023/01/25 00:10:13;;;;;;;4.43;2.40;;;3.50;99.90;;;;;;5025342;28;20223;-62
2023/01/25 00:12:41;;;;;;;4.38;3.05;;;3.50;99.90;;;;;;5022827;28;20753;-62
2023/01/25 00:15:10;;;;;;;3.83;2.28;;;3.70;99.90;;;;;;5025897;28;20688;-63
2023/01/25 00:17:38;;;;;;;3.35;2.60;;;3.70;99.90;;;;;;5026624;28;20790;-62
2023/01/25 00:20:07;;;;;;;2.90;2.65;;;3.60;99.90;;;;;;5029092;28;20311;-62
2023/01/25 00:22:35;;;;;;;2.83;2.55;;;3.50;99.90;;;;;;5030201;28;20279;-62
2023/01/25 00:25:02;;;;;;;3.78;2.67;;;3.80;99.90;;;;;;5030913;28;20197;-62
2023/01/25 00:27:32;;;;;;;3.40;2.55;;;3.80;99.90;;;;;;5030766;28;20281;-62
2023/01/25 00:30:00;;;;;;;2.30;1.95;;;3.80;99.90;;;;;;5030734;28;20720;-62
2023/01/25 00:32:47;;;;;;;1.92;1.60;;;3.60;99.90;;;;;;5030895;28;20557;-62
2023/01/25 00:35:15;;;;;;;3.13;2.20;;;3.50;99.90;;;;;;5030821;28;20295;-63
2023/01/25 00:37:48;;;;;;;2.78;2.55;;;3.50;99.90;;;;;;5030537;28;20248;-63
2023/01/25 00:40:17;;;;;;;4.43;2.63;;;3.50;99.90;;;;;;5029905;28;20236;-63
2023/01/25 00:42:46;;;;;;;2.60;2.25;;;3.60;99.90;;;;;;5030732;28;20343;-63
2023/01/25 00:45:14;;;;;;;3.58;3.25;;;3.90;99.90;;;;;;5030834;28;20196;-63
2023/01/25 00:47:42;;;;;;;3.22;2.20;;;3.90;99.90;;;;;;5030913;28;20199;-62
2023/01/25 00:50:11;;;;;;;4.22;3.35;;;3.90;99.90;;;;;;5030180;28;20267;-63
2023/01/25 00:52:39;;;;;;;1.95;1.67;;;3.80;99.90;;;;;;5030032;28;20229;-63
2023/01/25 00:55:08;;;;;;;5.13;2.92;;;3.90;99.90;;;;;;5030754;28;20226;-62
2023/01/25 00:57:37;;;;;;;1.90;1.80;;;3.60;99.90;;;;;;5030403;28;20275;-62
2023/01/25 01:00:08;;;;;;;2.53;2.13;;;3.60;99.90;;;;;;5030005;28;20674;-62
2023/01/25 01:02:35;;;;;;;4.43;3.28;;;3.50;99.90;;;;;;5030695;28;20198;-62
2023/01/25 01:05:04;;;;;;;2.65;2.45;;;3.40;99.90;;;;;;5031326;28;20635;-62
2023/01/25 01:07:32;;;;;;;3.80;2.05;;;3.50;99.90;;;;;;5030482;28;20721;-62
2023/01/25 01:10:00;;;;;;;2.83;2.55;;;3.50;99.90;;;;;;5029582;28;20300;-62
2023/01/25 01:12:28;;;;;;;2.58;2.35;;;3.30;99.90;;;;;;5030366;28;20717;-62
2023/01/25 01:14:56;;;;;;;3.92;2.97;;;3.20;99.90;;;;;;5032199;28;20232;-62
2023/01/25 01:17:25;;;;;;;3.78;2.90;;;3.10;99.90;;;;;;5034317;28;20217;-62
2023/01/25 01:19:53;;;;;;;2.88;2.65;;;3.10;99.90;;;;;;5031185;28;20332;-61
2023/01/25 01:22:21;;;;;;;2.75;2.35;;;3.00;99.90;;;;;;5030554;28;20207;-61
2023/01/25 01:24:49;;;;;;;2.75;2.15;;;3.00;99.90;;;;;;5029715;28;20689;-62
2023/01/25 01:27:16;;;;;;;3.05;2.10;;;3.20;99.90;;;;;;5026668;28;20287;-61
2023/01/25 01:29:44;;;;;;;3.45;2.97;;;3.20;99.90;;;;;;5027734;28;20220;-62
2023/01/25 01:32:12;;;;;;;2.45;2.25;;;3.40;99.90;;;;;;5029913;28;20206;-62
2023/01/25 01:34:42;;;;;;;3.58;2.95;;;3.70;99.90;;;;;;5027172;28;20235;-63
2023/01/25 01:37:10;;;;;;;3.40;2.83;;;3.80;99.90;;;;;;5023712;28;20219;-61
2023/01/25 01:39:38;;;;;;;3.00;1.80;;;3.70;99.90;;;;;;5021449;28;20236;-61
2023/01/25 01:42:06;;;;;;;3.08;2.60;;;3.50;99.90;;;;;;5037366;22;20232;-65
2023/01/25 01:44:53;;;;;;;3.28;2.90;;;3.60;99.90;;;;;;5004812;28;20232;-65
2023/01/25 01:47:24;;;;;;;2.88;2.35;;;3.70;99.90;;;;;;5013776;28;20731;-66
2023/01/25 01:49:58;;;;;;;2.70;2.40;;;3.70;99.90;;;;;;5012079;28;20208;-65
2023/01/25 01:52:30;;;;;;;2.20;2.00;;;3.60;99.90;;;;;;5005063;28;20240;-66
2023/01/25 01:55:06;;;;;;;3.75;3.35;;;3.50;99.90;;;;;;5002970;28;20209;-66
2023/01/25 01:57:41;;;;;;;2.53;2.33;;;3.50;99.90;;;;;;5002464;28;20759;-65
2023/01/25 02:00:12;;;;;;;3.40;2.92;;;3.40;99.90;;;;;;4998818;28;20289;-65
2023/01/25 02:02:41;;;;;;;2.42;2.22;;;3.30;99.90;;;;;;4998966;28;20233;-65
2023/01/25 02:05:14;;;;;;;2.22;1.85;;;3.10;99.90;;;;;;4999561;28;20210;-65
2023/01/25 02:07:43;;;;;;;2.63;2.42;;;3.00;99.90;;;;;;5001220;28;20278;-65
2023/01/25 02:10:12;;;;;;;3.33;2.10;;;3.00;99.90;;;;;;4997540;28;20299;-65
2023/01/25 02:12:42;;;;;;;3.03;2.42;;;3.00;99.90;;;;;;5002265;28;20227;-64
2023/01/25 02:15:11;;;;;;;2.15;1.95;;;3.00;99.90;;;;;;5001759;28;20194;-65
2023/01/25 02:17:40;;;;;;;4.80;3.08;;;3.00;99.90;;;;;;4998522;28;20269;-64
2023/01/25 02:20:17;;;;;;;4.28;2.90;;;3.00;99.90;;;;;;5002319;28;20289;-66
2023/01/25 02:22:51;;;;;;;3.40;2.92;;;2.90;99.90;;;;;;4998328;28;20197;-64
2023/01/25 02:25:21;;;;;;;3.60;2.22;;;2.90;99.90;;;;;;4996108;28;20706;-64
2023/01/25 02:27:54;;;;;;;2.97;2.53;;;2.80;99.90;;;;;;5004214;28;20202;-65
2023/01/25 02:30:23;;;;;;;3.63;2.47;;;2.80;99.90;;;;;;5002173;28;20758;-64
2023/01/25 02:32:51;;;;;;;4.30;3.10;;;2.70;99.90;;;;;;5008108;28;20623;-65
2023/01/25 02:35:20;;;;;;;3.40;2.58;;;2.60;99.90;;;;;;4997716;28;20218;-65
2023/01/25 02:37:49;;;;;;;2.50;2.10;;;2.60;99.90;;;;;;4998996;28;20210;-65
2023/01/25 02:40:17;;;;;;;2.78;2.55;;;2.60;99.90;;;;;;4994507;28;20613;-65
2023/01/25 02:42:46;;;;;;;2.95;2.75;;;2.80;99.90;;;;;;5011419;28;20260;-65
2023/01/25 02:45:17;;;;;;;5.18;3.78;;;2.90;99.90;;;;;;5012025;28;20277;-65
2023/01/25 02:47:47;;;;;;;3.03;2.67;;;3.00;99.90;;;;;;4993409;28;20678;-66
2023/01/25 02:50:15;;;;;;;4.70;2.60;;;3.10;99.90;;;;;;4992463;28;20199;-65
2023/01/25 02:52:43;;;;;;;2.95;2.33;;;2.90;99.90;;;;;;4996594;28;20195;-63
2023/01/25 02:55:12;;;;;;;3.50;2.40;;;2.90;99.90;;;;;;5000277;28;20213;-63
2023/01/25 02:57:39;;;;;;;3.17;2.85;;;2.90;99.90;;;;;;4996871;28;20226;-63
2023/01/25 03:00:10;;;;;;;3.72;3.42;;;2.80;99.90;;;;;;4997114;28;20759;-63
2023/01/25 03:02:38;;;;;;;3.78;2.90;;;2.80;99.90;;;;;;4995328;28;20231;-62
2023/01/25 03:05:06;;;;;;;3.05;2.80;;;2.90;99.90;;;;;;4995903;28;20221;-63
2023/01/25 03:07:35;;;;;;;4.72;3.78;;;2.70;99.90;;;;;;5009360;28;20191;-64
2023/01/25 03:10:03;;;;;;;3.35;2.22;;;2.70;99.90;;;;;;4999633;28;20205;-63
2023/01/25 03:12:31;;;;;;;3.88;2.50;;;2.80;99.90;;;;;;4998017;28;20207;-62
2023/01/25 03:14:58;;;;;;;3.47;2.80;;;2.80;99.90;;;;;;4998388;28;20289;-63
2023/01/25 03:17:30;;;;;;;3.15;2.67;;;3.00;99.90;;;;;;5010759;28;20305;-63
2023/01/25 03:19:57;;;;;;;3.72;3.35;;;2.90;99.90;;;;;;4996991;28;20205;-63
2023/01/25 03:22:25;;;;;;;3.75;2.85;;;3.00;99.90;;;;;;4993712;28;20691;-63
2023/01/25 03:24:53;;;;;;;2.75;2.28;;;2.90;99.90;;;;;;5002464;28;20233;-63
2023/01/25 03:27:21;;;;;;;5.32;2.63;;;3.00;99.90;;;;;;4999513;28;20263;-63
2023/01/25 03:29:49;;;;;;;2.83;2.10;;;3.00;99.90;;;;;;5000652;28;20656;-63
2023/01/25 03:32:17;;;;;;;5.80;3.13;;;2.90;99.90;;;;;;4995683;28;20223;-63
2023/01/25 03:34:46;;;;;;;3.80;2.70;;;2.90;99.90;;;;;;4995166;28;20244;-63
2023/01/25 03:37:14;;;;;;;4.80;4.00;;;2.90;99.90;;;;;;5002122;28;20301;-63
2023/01/25 03:39:42;;;;;;;3.45;3.08;;;2.80;99.90;;;;;;4992377;28;20646;-63
2023/01/25 03:42:10;;;;;;;4.60;3.15;;;2.70;99.90;;;;;;4998743;28;20276;-64
2023/01/25 03:44:37;;;;;;;4.20;3.35;;;2.60;99.90;;;;;;4998429;28;20242;-65
2023/01/25 03:47:05;;;;;;;3.42;3.13;;;2.60;99.90;;;;;;4993367;28;20195;-64
2023/01/25 03:49:33;;;;;;;6.22;3.50;;;2.80;99.90;;;;;;4998327;28;20212;-63
2023/01/25 03:52:03;;;;;;;3.30;2.50;;;2.80;99.90;;;;;;4996647;28;20650;-64
2023/01/25 03:54:31;;;;;;;5.13;3.53;;;2.70;99.90;;;;;;5003380;28;20632;-64
2023/01/25 03:56:59;;;;;;;4.20;2.95;;;2.80;99.90;;;;;;4998137;28;20213;-64
2023/01/25 03:59:27;;;;;;;5.75;3.83;;;2.70;99.90;;;;;;4992062;28;20309;-63
2023/01/25 04:01:55;;;;;;;4.00;3.17;;;2.70;99.90;;;;;;4996218;28;20226;-64
2023/01/25 04:04:23;;;;;;;5.25;3.53;;;2.70;99.90;;;;;;5000446;28;20218;-64
2023/01/25 04:06:51;;;;;;;6.72;4.55;;;2.70;99.90;;;;;;4992137;28;20233;-64
2023/01/25 04:09:20;;;;;;;4.22;3.30;;;2.60;99.90;;;;;;4995337;28;20198;-64
2023/01/25 04:11:49;;;;;;;4.10;3.13;;;2.60;99.90;;;;;;5000308;28;20679;-64
2023/01/25 04:14:17;;;;;;;3.92;3.53;;;2.70;99.90;;;;;;4997648;28;20305;-64
2023/01/25 04:16:58;;;;;;;4.70;2.70;;;2.50;99.90;;;;;;5010028;28;20207;-64
2023/01/25 04:19:26;;;;;;;4.22;3.15;;;2.40;99.90;;;;;;5005928;28;20328;-64
2023/01/25 04:21:54;;;;;;;3.30;2.75;;;2.40;99.90;;;;;;4995173;28;20310;-64
2023/01/25 04:24:23;;;;;;;3.55;2.78;;;2.40;99.90;;;;;;5001824;28;20300;-64
2023/01/25 04:26:51;;;;;;;3.40;3.03;;;2.40;99.90;;;;;;4999851;28;20238;-64
2023/01/25 04:29:19;;;;;;;6.50;4.03;;;2.40;99.90;;;;;;5001018;28;20288;-64
2023/01/25 04:32:02;;;;;;;2.75;2.50;;;2.40;99.90;;;;;;4998981;28;20221;-64
2023/01/25 04:34:30;;;;;;;3.97;3.58;;;2.40;99.90;;;;;;4994063;28;20204;-63
2023/01/25 04:36:58;;;;;;;5.10;2.83;;;2.40;99.90;;;;;;4998406;28;20237;-63
2023/01/25 04:39:27;;;;;;;3.65;3.20;;;2.40;99.90;;;;;;4992142;28;20253;-63
2023/01/25 04:41:55;;;;;;;3.40;3.10;;;2.40;99.90;;;;;;4994195;28;20241;-64
2023/01/25 04:44:23;;;;;;;3.38;3.08;;;2.40;99.90;;;;;;4998245;28;20201;-64
2023/01/25 04:46:51;;;;;;;4.45;3.13;;;2.70;99.90;;;;;;4995117;28;20226;-63
2023/01/25 04:49:19;;;;;;;3.05;2.78;;;2.60;99.90;;;;;;5001513;28;20205;-64
2023/01/25 04:51:47;;;;;;;3.45;3.15;;;2.50;99.90;;;;;;4999711;28;20222;-63
2023/01/25 04:54:14;;;;;;;5.35;4.20;;;2.50;99.90;;;;;;4996661;28;20733;-65
2023/01/25 04:56:44;;;;;;;3.33;2.35;;;2.50;99.90;;;;;;5000791;28;20203;-64
2023/01/25 04:59:12;;;;;;;3.45;2.80;;;2.50;99.90;;;;;;5001734;28;20251;-63
2023/01/25 05:01:39;;;;;;;3.55;2.63;;;2.70;99.90;;;;;;5002496;28;20247;-63
2023/01/25 05:04:08;;;;;;;4.93;3.13;;;2.80;99.90;;;;;;5000407;28;20194;-63
2023/01/25 05:06:36;;;;;;;3.67;2.80;;;2.60;99.90;;;;;;4996667;28;20189;-63
2023/01/25 05:09:04;;;;;;;3.10;2.83;;;2.70;99.90;;;;;;5005590;28;20252;-63
2023/01/25 05:11:32;;;;;;;3.28;2.25;;;2.90;99.90;;;;;;5001074;28;20595;-62
2023/01/25 05:14:01;;;;;;;3.78;2.97;;;2.90;99.90;;;;;;5004103;28;20314;-64
2023/01/25 05:16:29;;;;;;;2.70;2.50;;;2.80;99.90;;;;;;5002533;28;20621;-63
2023/01/25 05:18:57;;;;;;;4.13;2.65;;;2.80;99.90;;;;;;5002543;28;20222;-63
2023/01/25 05:24:12;;;;;;;4.20;3.63;;;2.50;99.90;;;;;;5003836;28;20260;-63
2023/01/25 05:29:26;;;;;;;4.38;3.08;;;2.60;99.90;;;;;;5000720;28;20284;-63
2023/01/25 05:31:54;;;;;;;3.75;2.60;;;2.60;99.90;;;;;;4997325;28;20312;-63
2023/01/25 05:34:22;;;;;;;5.25;3.78;;;2.80;99.90;;;;;;4999786;28;20203;-63
2023/01/25 05:36:50;;;;;;;3.92;3.53;;;2.70;99.90;;;;;;4999516;28;20244;-65
2023/01/25 05:39:18;;;;;;;6.85;3.80;;;2.80;99.90;;;;;;4991753;28;20687;-66
2023/01/25 05:41:46;;;;;;;5.85;4.00;;;2.60;99.90;;;;;;4993097;28;20234;-66
2023/01/25 05:44:14;;;;;;;2.95;2.40;;;2.60;99.90;;;;;;4999624;28;20245;-66
2023/01/25 05:46:43;;;;;;;3.78;3.28;;;2.50;99.90;;;;;;5001818;28;20205;-64
2023/01/25 05:49:11;;;;;;;5.07;3.80;;;2.30;99.90;;;;;;4994564;28;20282;-64
2023/01/25 05:51:41;;;;;;;4.60;3.17;;;2.20;99.90;;;;;;4998144;28;20249;-64
2023/01/25 05:54:12;;;;;;;4.03;2.88;;;2.10;99.90;;;;;;4999616;28;20301;-64
2023/01/25 05:56:40;;;;;;;4.15;3.15;;;2.10;99.90;;;;;;4998058;28;20206;-64
2023/01/25 05:59:10;;;;;;;4.18;2.85;;;2.20;99.90;;;;;;5002127;28;20248;-64
2023/01/25 06:01:39;;;;;;;5.55;3.65;;;2.10;99.90;;;;;;4996606;28;20232;-64
2023/01/25 06:04:08;;;;;;;4.32;3.45;;;2.10;99.90;;;;;;5002116;28;20257;-64
2023/01/25 06:06:36;;;;;;;3.38;2.75;;;2.10;99.90;;;;;;5001263;28;20225;-65
2023/01/25 06:09:03;;;;;;;3.85;2.45;;;2.10;99.90;;;;;;5000202;28;20194;-65
2023/01/25 06:11:31;;;;;;;3.70;2.72;;;2.10;99.90;;;;;;4995898;28;20229;-64
2023/01/25 06:13:59;;;;;;;4.63;3.42;;;2.00;99.90;;;;;;5000034;28;20229;-64
2023/01/25 06:16:27;;;;;;;5.07;3.42;;;2.10;99.90;;;;;;5003345;28;20247;-64
2023/01/25 06:18:55;;;;;;;2.97;2.65;;;2.00;99.90;;;;;;4998145;28;20280;-64
2023/01/25 06:21:24;;;;;;;4.60;3.60;;;2.00;99.90;;;;;;4996013;28;20316;-64
2023/01/25 06:23:52;;;;;;;4.45;3.17;;;2.10;99.90;;;;;;4995063;28;20210;-64
2023/01/25 06:26:20;;;;;;;4.45;4.05;;;2.10;99.90;;;;;;5001121;28;20265;-64
2023/01/25 06:28:47;;;;;;;3.45;2.75;;;2.10;99.90;;;;;;4998034;28;20285;-64
2023/01/25 06:31:17;;;;;;;3.92;2.33;;;2.00;99.90;;;;;;4999606;28;20223;-64
2023/01/25 06:33:48;;;;;;;4.13;3.22;;;1.90;99.90;;;;;;5002199;28;21717;-64
2023/01/25 06:36:18;;;;;;;3.80;3.40;;;1.90;99.90;;;;;;5001129;28;20749;-64
2023/01/25 06:38:50;;;;;;;3.70;2.95;;;1.90;99.90;;;;;;5001317;28;20202;-65
2023/01/25 06:41:19;;;;;;;3.75;3.45;;;1.90;99.90;;;;;;4995802;28;20272;-65
2023/01/25 06:43:50;;;;;;;3.58;2.97;;;1.90;99.90;;;;;;4995261;28;20355;-65
2023/01/25 06:46:19;;;;;;;5.40;3.55;;;1.90;99.90;;;;;;4996487;28;20208;-64
2023/01/25 06:48:46;;;;;;;6.43;3.95;;;2.00;99.90;;;;;;4997736;28;20659;-65
2023/01/25 06:51:15;;;;;;;6.57;4.80;;;2.00;99.90;;;;;;4997753;28;20249;-64
2023/01/25 06:53:45;;;;;;;4.32;3.33;;;2.00;99.90;;;;;;4995438;28;20202;-65
2023/01/25 06:56:17;;;;;;;3.40;3.10;;;1.90;99.90;;;;;;4997025;28;20736;-65
2023/01/25 06:58:45;;;;;;;3.92;3.58;;;1.90;99.90;;;;;;4995717;28;20669;-65
2023/01/25 07:01:18;;;;;;;4.68;2.88;;;1.90;99.90;;;;;;4996113;28;20237;-65
2023/01/25 07:03:48;;;;;;;3.33;2.88;;;1.90;99.90;;;;;;5001044;28;20213;-65
2023/01/25 07:06:17;;;;;;;3.53;2.38;;;1.80;99.90;;;;;;5000349;28;20271;-65
2023/01/25 07:08:45;;;;;;;4.20;3.08;;;1.80;99.90;;;;;;4998621;28;20251;-65
2023/01/25 07:11:17;;;;;;;3.35;2.65;;;1.80;99.90;;;;;;4997825;28;20298;-65
2023/01/25 07:13:46;;;;;;;3.72;2.80;;;1.80;99.90;;;;;;4997672;28;20209;-65
2023/01/25 07:16:16;;;;;;;6.47;3.70;;;1.80;99.90;;;;;;5004875;28;20617;-65
2023/01/25 07:18:44;;;;;;;5.03;2.58;;;1.80;99.90;;;;;;5002141;28;20285;-65
2023/01/25 07:21:14;;;;;;;5.40;3.72;;;1.80;99.90;;;;;;4997611;28;20320;-65
2023/01/25 07:23:42;;;;;;;3.10;2.65;;;1.80;99.90;;;;;;4996426;28;20202;-65
2023/01/25 07:26:17;;;;;;;3.55;2.67;;;1.70;99.90;;;;;;4989817;28;20727;-65
2023/01/25 07:28:46;;;;;;;5.35;3.65;;;1.70;99.90;;;;;;4992366;28;20202;-65
2023/01/25 07:31:15;;;;;;;2.65;2.30;;;1.70;99.90;;;;;;4998218;28;20293;-65
2023/01/25 07:33:43;;;;;;;4.47;2.85;;;1.70;99.90;;;;;;5000108;28;20195;-65
2023/01/25 07:36:11;;;;;;;5.00;3.22;;;1.70;99.90;;;;;;4992298;28;20285;-65
2023/01/25 07:38:43;;;;;;;3.17;2.63;;;1.70;99.90;;;;;;4992556;28;20212;-66
2023/01/25 07:41:12;;;;;;;5.97;4.53;;;1.80;99.90;;;;;;5028836;23;20228;-63
2023/01/25 07:43:41;;;;;;;5.13;3.97;;;1.80;99.90;;;;;;5027533;28;20233;-63
2023/01/25 07:46:10;;;;;;;3.83;2.65;;;1.70;99.90;;;;;;5023457;28;20200;-62
2023/01/25 07:48:39;;;;;;;5.90;4.32;;;1.70;99.90;;;;;;5031328;28;20202;-62
2023/01/25 07:51:21;;;;;;;4.05;3.10;;;1.80;99.90;;;;;;5023505;28;20229;-63
2023/01/25 07:53:50;;;;;;;4.55;2.38;;;1.80;99.90;;;;;;5011703;28;20201;-63
2023/01/25 07:56:19;;;;;;;5.40;3.85;;;1.80;99.90;;;;;;5010379;28;20244;-62
2023/01/25 07:58:49;;;;;;;4.13;2.58;;;1.80;99.90;;;;;;5004835;28;20205;-63
2023/01/25 08:01:18;;;;;;;3.83;2.70;;;1.80;99.90;;;;;;5010414;28;20239;-63
2023/01/25 08:03:47;;;;;;;3.25;2.65;;;1.80;99.90;;;;;;5011514;28;20649;-62
2023/01/25 08:06:15;;;;;;;3.53;2.80;;;1.90;99.90;;;;;;5011152;28;20256;-63
2023/01/25 08:08:44;;;;;;;3.72;2.67;;;1.80;99.90;;;;;;5011773;28;20230;-62
2023/01/25 08:11:15;;;;;;;4.60;2.90;;;1.80;99.90;;;;;;5010637;28;20215;-62
2023/01/25 08:13:45;;;;;;;3.38;2.63;;;1.80;99.90;;;;;;5011329;28;20292;-63
2023/01/25 08:16:14;;;;;;;3.42;2.50;;;1.80;99.90;;;;;;5011204;28;20297;-63
2023/01/25 08:18:42;;;;;;;5.53;3.90;;;1.80;99.90;;;;;;5011332;28;20280;-62
2023/01/25 08:21:10;;;;;;;2.95;2.50;;;1.80;99.90;;;;;;5010416;28;20228;-63
2023/01/25 08:23:38;;;;;;;4.05;2.85;;;1.80;99.90;;;;;;5010793;28;20301;-62
2023/01/25 08:26:08;;;;;;;3.03;2.30;;;1.70;99.90;;;;;;5010928;28;20380;-63
2023/01/25 08:28:36;;;;;;;4.20;2.50;;;1.80;99.90;;;;;;5002858;28;20292;-63
2023/01/25 08:31:08;;;;;;;3.65;3.20;;;1.80;99.90;;;;;;5010120;28;20710;-62
2023/01/25 08:33:38;;;;;;;5.28;3.15;;;1.80;99.90;;;;;;5011226;28;20569;-62
2023/01/25 08:36:07;;;;;;;4.75;3.10;;;1.80;99.90;;;;;;5010766;28;20278;-62
2023/01/25 08:38:35;;;;;;;4.43;2.97;;;1.80;99.90;;;;;;5011056;28;20288;-63
2023/01/25 08:41:07;;;;;;;6.28;4.28;;;1.80;99.90;;;;;;5009739;28;20224;-63
2023/01/25 08:43:35;;;;;;;3.45;2.42;;;1.80;99.90;;;;;;5011113;28;20745;-62
2023/01/25 08:46:03;;;;;;;6.78;4.90;;;1.70;99.90;;;;;;5010320;28;20201;-63
2023/01/25 08:48:32;;;;;;;3.08;2.55;;;1.70;99.90;;;;;;5011048;28;20197;-62
2023/01/25 08:51:01;;;;;;;7.38;4.85;;;1.70;99.90;;;;;;5010164;28;20221;-63
2023/01/25 08:53:31;;;;;;;9.00;4.88;;;1.70;99.90;;;;;;5010914;28;20212;-62
2023/01/25 08:56:03;;;;;;;3.35;2.80;;;1.70;99.90;;;;;;5010377;28;20252;-61
2023/01/25 08:58:31;;;;;;;3.67;2.67;;;1.70;99.90;;;;;;5002774;28;20213;-62
2023/01/25 09:01:03;;;;;;;3.65;2.47;;;1.70;99.90;;;;;;5009837;28;20225;-63
2023/01/25 09:03:31;;;;;;;2.45;2.25;;;1.60;99.90;;;;;;5010926;28;20233;-63
2023/01/25 09:06:00;;;;;;;5.60;3.63;;;1.60;99.90;;;;;;5010422;28;20284;-62
2023/01/25 09:08:28;;;;;;;4.40;3.45;;;1.60;99.90;;;;;;5010838;28;20284;-63
2023/01/25 09:11:01;;;;;;;4.72;2.58;;;1.60;99.90;;;;;;5009993;28;20220;-62
2023/01/25 09:13:29;;;;;;;3.53;3.20;;;1.60;99.90;;;;;;5010868;28;20208;-63
2023/01/25 09:16:00;;;;;;;4.80;3.53;;;1.60;99.90;;;;;;5010749;28;20201;-62
2023/01/25 09:18:30;;;;;;;5.53;3.95;;;1.60;99.90;;;;;;5010464;28;20638;-62
2023/01/25 09:20:58;;;;;;;5.00;3.38;;;1.60;99.90;;;;;;5009768;28;20252;-62
2023/01/25 09:23:27;;;;;;;4.03;2.65;;;1.60;99.90;;;;;;5010715;28;20573;-63
2023/01/25 09:25:58;;;;;;;4.72;2.83;;;1.60;99.90;;;;;;5010427;28;20198;-62
2023/01/25 09:28:28;;;;;;;5.93;4.95;;;1.70;99.90;;;;;;5002274;28;20213;-63
2023/01/25 09:30:57;;;;;;;2.88;2.53;;;1.70;99.90;;;;;;5009784;28;20764;-63
2023/01/25 09:33:46;;;;;;;5.45;3.47;;;1.70;99.90;;;;;;5010778;28;20465;-63
2023/01/25 09:36:14;;;;;;;7.28;3.38;;;1.70;99.90;;;;;;5012080;28;20625;-63
2023/01/25 09:38:43;;;;;;;2.45;1.88;;;1.80;99.90;;;;;;5014099;28;20198;-62
2023/01/25 09:41:32;;;;;;;4.07;3.58;;;1.80;99.90;;;;;;5012814;28;20248;-63
2023/01/25 09:44:16;;;;;;;3.60;2.63;;;1.80;99.90;;;;;;5014151;28;20201;-62
2023/01/25 09:46:47;;;;;;;3.92;2.58;;;1.70;99.90;;;;;;5013918;28;20359;-62
2023/01/25 09:49:34;;;;;;;3.58;2.72;;;1.70;99.90;;;;;;5013636;28;20539;-63
2023/01/25 09:52:16;;;;;;;3.85;3.33;;;1.70;99.90;;;;;;5013737;28;20220;-64
2023/01/25 09:54:49;;;;;;;4.32;2.40;;;1.80;99.90;;;;;;5013805;28;20194;-63
2023/01/25 09:57:22;;;;;;;4.68;2.75;;;1.70;99.90;;;;;;5004981;28;20682;-64
2023/01/25 09:59:51;;;;;;;3.60;2.63;;;1.70;99.90;;;;;;5013211;28;20536;-63
2023/01/25 10:02:31;;;;;;;3.83;2.45;;;1.80;99.90;;;;;;5013318;28;20764;-64
2023/01/25 10:05:07;;;;;;;6.10;3.70;;;1.80;99.90;;;;;;5013376;28;20675;-64
2023/01/25 10:07:49;;;;;;;2.58;2.00;;;1.80;99.90;;;;;;5013445;28;20221;-63
2023/01/25 10:10:22;;;;;;;3.22;2.38;;;1.80;99.90;;;;;;5012872;28;20247;-64
2023/01/25 10:12:49;;;;;;;4.47;2.78;;;1.70;99.90;;;;;;5013303;28;20194;-63
2023/01/25 10:15:19;;;;;;;3.72;2.97;;;1.70;99.90;;;;;;5013606;28;20200;-63
2023/01/25 10:17:57;;;;;;;3.28;2.17;;;1.70;99.90;;;;;;5013457;28;20197;-63
2023/01/25 10:20:31;;;;;;;4.60;2.95;;;1.70;99.90;;;;;;5012597;28;20224;-63
2023/01/25 10:23:20;;;;;;;4.90;2.70;;;1.70;99.90;;;;;;5013048;28;20263;-64
2023/01/25 10:25:57;;;;;;;4.13;3.08;;;1.70;99.90;;;;;;5012618;28;20662;-63
2023/01/25 10:28:37;;;;;;;3.05;2.70;;;1.70;99.90;;;;;;5004986;28;20201;-64
2023/01/25 10:31:11;;;;;;;3.53;3.03;;;1.70;99.90;;;;;;5012216;28;20220;-63
2023/01/25 10:33:43;;;;;;;4.20;2.53;;;1.80;99.90;;;;;;5013007;28;20244;-63
2023/01/25 10:36:14;;;;;;;4.97;3.13;;;1.80;99.90;;;;;;5013059;28;20197;-63
2023/01/25 10:38:44;;;;;;;3.65;3.22;;;1.80;99.90;;;;;;5013193;28;20198;-63
2023/01/25 10:41:18;;;;;;;3.38;2.58;;;1.80;99.90;;;;;;5011487;28;20276;-64
2023/01/25 10:43:46;;;;;;;4.88;3.40;;;1.90;99.90;;;;;;5012733;28;20192;-63
2023/01/25 10:46:20;;;;;;;5.55;3.70;;;1.80;99.90;;;;;;5012432;28;20686;-63
2023/01/25 10:48:48;;;;;;;5.00;3.53;;;1.80;99.90;;;;;;5012625;28;20202;-63
2023/01/25 10:51:36;;;;;;;3.45;2.38;;;1.80;99.90;;;;;;5011841;28;20220;-65
2023/01/25 10:54:06;;;;;;;7.28;4.13;;;1.80;99.90;;;;;;5008278;28;20296;-64
2023/01/25 10:56:38;;;;;;;4.65;4.22;;;2.00;99.90;;;;;;5009730;28;20211;-64
2023/01/25 10:59:15;;;;;;;4.30;3.47;;;2.00;99.90;;;;;;5008255;28;20602;-63
2023/01/25 11:01:43;;;;;;;2.53;2.33;;;2.00;99.90;;;;;;4992112;28;20239;-63
2023/01/25 11:04:33;;;;;;;3.97;2.55;;;2.00;99.90;;;;;;4993412;28;20548;-63
2023/01/25 11:07:03;;;;;;;3.88;2.40;;;1.90;99.90;;;;;;4992924;28;20565;-64
2023/01/25 11:09:37;;;;;;;3.97;2.70;;;1.90;99.90;;;;;;4992395;28;20751;-63
2023/01/25 11:12:17;;;;;;;5.03;2.47;;;1.90;99.90;;;;;;4992511;28;20309;-64
2023/01/25 11:14:48;;;;;;;3.60;2.50;;;1.90;99.90;;;;;;4996940;28;20200;-63
2023/01/25 11:17:30;;;;;;;5.25;3.35;;;1.90;99.90;;;;;;5011926;28;20201;-63
2023/01/25 11:20:17;;;;;;;4.90;3.15;;;1.90;99.90;;;;;;5011445;28;21118;-63
2023/01/25 11:22:54;;;;;;;4.40;2.42;;;1.90;99.90;;;;;;5011914;28;20561;-63
2023/01/25 11:25:30;;;;;;;3.53;2.90;;;1.90;99.90;;;;;;5011752;28;20256;-63
2023/01/25 11:28:16;;;;;;;2.70;2.38;;;1.90;99.90;;;;;;5003892;28;20193;-63
2023/01/25 11:30:45;;;;;;;3.05;2.75;;;2.00;99.90;;;;;;5011352;28;20220;-63
2023/01/25 11:33:15;;;;;;;5.03;3.80;;;2.00;99.90;;;;;;5011913;28;20198;-64
2023/01/25 11:35:59;;;;;;;7.07;3.05;;;1.90;99.90;;;;;;5011640;28;20223;-64
2023/01/25 11:38:27;;;;;;;3.75;2.55;;;1.80;99.90;;;;;;5012039;28;20206;-63
2023/01/25 11:41:04;;;;;;;5.35;3.33;;;1.80;99.90;;;;;;5010744;28;20233;-63
2023/01/25 11:43:51;;;;;;;5.80;2.70;;;1.80;99.90;;;;;;5011676;28;20220;-62
2023/01/25 11:46:33;;;;;;;2.53;2.10;;;1.90;99.90;;;;;;5011579;28;20201;-63
2023/01/25 11:49:28;;;;;;;5.25;3.10;;;1.80;99.90;;;;;;5011917;28;20204;-63
2023/01/25 11:52:07;;;;;;;9.45;3.53;;;1.80;99.90;;;;;;4991654;28;20721;-63
2023/01/25 11:54:52;;;;;;;3.83;3.45;;;1.80;99.90;;;;;;4993265;28;20202;-63
2023/01/25 11:57:38;;;;;;;2.47;2.20;;;1.80;99.90;;;;;;5003168;28;20225;-64
2023/01/25 12:00:24;;;;;;;3.70;2.75;;;1.80;99.90;;;;;;5010859;28;20292;-64
2023/01/25 12:03:20;;;;;;;3.65;2.35;;;1.80;99.90;;;;;;5011244;28;20312;-64
2023/01/25 12:06:00;;;;;;;4.47;2.90;;;1.80;99.90;;;;;;5009754;28;20284;-63
2023/01/25 12:08:42;;;;;;;3.88;2.47;;;1.80;99.90;;;;;;5009813;28;20288;-63
2023/01/25 12:11:20;;;;;;;5.80;3.00;;;1.80;99.90;;;;;;5010243;28;20300;-64
2023/01/25 12:13:57;;;;;;;3.95;3.47;;;1.80;99.90;;;;;;5010913;28;20551;-64
2023/01/25 12:16:43;;;;;;;3.95;3.13;;;1.70;99.90;;;;;;5011223;28;20532;-64
2023/01/25 12:19:35;;;;;;;4.35;3.05;;;1.70;99.90;;;;;;5011511;28;20693;-64
2023/01/25 12:22:19;;;;;;;4.07;2.42;;;1.70;99.90;;;;;;5011207;28;20718;-63
2023/01/25 12:24:57;;;;;;;5.68;4.47;;;1.80;99.90;;;;;;5011353;28;20320;-64
2023/01/25 12:27:39;;;;;;;3.85;2.72;;;1.80;99.90;;;;;;5002996;28;20309;-62
2023/01/25 12:30:15;;;;;;;3.97;2.13;;;1.90;99.90;;;;;;5010192;28;20193;-63
2023/01/25 12:32:51;;;;;;;5.25;3.45;;;1.90;99.90;;;;;;5011165;28;20192;-63
2023/01/25 12:35:30;;;;;;;6.88;3.00;;;1.90;99.90;;;;;;4991801;28;20645;-64
2023/01/25 12:38:03;;;;;;;3.42;2.20;;;1.90;99.90;;;;;;4991827;28;20305;-63
2023/01/25 12:40:46;;;;;;;3.70;2.65;;;1.80;99.90;;;;;;4990122;28;20588;-63
2023/01/25 12:43:20;;;;;;;3.15;2.85;;;1.90;99.90;;;;;;4991241;28;20226;-63
2023/01/25 12:45:50;;;;;;;4.05;3.65;;;1.80;99.90;;;;;;5004463;28;20198;-64
2023/01/25 12:48:23;;;;;;;5.80;3.50;;;1.70;99.90;;;;;;5011180;28;20205;-63
2023/01/25 12:50:55;;;;;;;3.22;2.85;;;1.70;99.90;;;;;;5010229;28;20216;-64
2023/01/25 12:53:26;;;;;;;3.60;2.75;;;1.80;99.90;;;;;;5011027;28;20205;-63
2023/01/25 12:55:55;;;;;;;4.18;2.90;;;1.80;99.90;;;;;;5005299;28;20198;-63
2023/01/25 12:58:31;;;;;;;5.60;3.75;;;1.90;99.90;;;;;;4999436;28;20237;-64
2023/01/25 13:01:11;;;;;;;4.90;3.60;;;1.90;99.90;;;;;;5006657;28;20698;-63
2023/01/25 13:03:53;;;;;;;4.18;2.50;;;1.90;99.90;;;;;;5010850;28;20243;-64
2023/01/25 13:06:31;;;;;;;4.10;2.95;;;1.90;99.90;;;;;;5011199;28;20392;-63
2023/01/25 13:09:07;;;;;;;5.45;4.07;;;1.80;99.90;;;;;;5011119;28;20189;-63
2023/01/25 13:11:38;;;;;;;6.13;2.92;;;1.80;99.90;;;;;;5013568;28;20697;-63
2023/01/25 13:14:40;;;;;;;5.10;2.45;;;1.80;99.90;;;;;;5014197;28;20189;-63
2023/01/25 13:17:19;;;;;;;2.70;2.47;;;1.70;99.90;;;;;;4934623;29;20242;-63
2023/01/25 13:19:48;;;;;;;1.95;1.60;;;1.80;99.90;;;;;;4933846;29;20268;-63
2023/01/25 13:23:00;;;;;;;1.88;1.60;;;1.80;99.90;;;;;;4977883;28;20316;-65
2023/01/25 13:25:28;;;;;;;4.53;2.70;;;1.80;99.90;;;;;;5011535;28;20221;-62